createdAt,value
2018-09-14T00:02:05.536Z,15.97
2018-09-14T00:04:34.651Z,16.75
2018-09-14T00:07:02.814Z,18.03
2018-09-14T00:09:31.029Z,17.63
2018-09-14T00:11:59.217Z,16.57
2018-09-14T00:14:27.441Z,16.53
2018-09-14T00:16:55.617Z,17.67
2018-09-14T00:19:23.878Z,17.90
2018-09-14T00:21:53.312Z,17.37
2018-09-14T00:24:21.520Z,15.60
2018-09-14T00:26:49.802Z,16.03
2018-09-14T00:29:21.077Z,16.33
2018-09-14T00:31:49.280Z,15.90
2018-09-14T00:34:17.640Z,18.57
2018-09-14T00:36:45.948Z,17.83
2018-09-14T00:39:14.181Z,16.27
2018-09-14T00:41:42.385Z,17.20
2018-09-14T00:44:10.867Z,16.65
2018-09-14T00:46:39.028Z,18.00
2018-09-14T00:49:07.355Z,16.17
2018-09-14T00:51:35.612Z,16.82
2018-09-14T00:54:03.838Z,18.03
2018-09-14T00:56:32.129Z,16.67
2018-09-14T00:59:00.337Z,20.93
2018-09-14T01:01:28.545Z,19.48
2018-09-14T01:03:56.777Z,19.10
2018-09-14T01:06:25.075Z,18.47
2018-09-14T01:08:53.382Z,18.40
2018-09-14T01:11:21.688Z,17.70
2018-09-14T01:13:49.885Z,15.30
2018-09-14T01:16:18.141Z,20.43
2018-09-14T01:18:46.381Z,19.40
2018-09-14T01:21:14.632Z,18.73
2018-09-14T01:25:39.078Z,16.87
2018-09-14T01:28:07.281Z,19.83
2018-09-14T01:30:35.512Z,18.03
2018-09-14T01:33:03.780Z,19.70
2018-09-14T01:35:37.351Z,17.00
2018-09-14T01:38:05.606Z,17.53
2018-09-14T01:40:33.779Z,16.20
2018-09-14T01:43:02.570Z,15.97
2018-09-14T01:45:30.947Z,17.80
2018-09-14T01:47:59.119Z,15.73
2018-09-14T01:50:27.367Z,16.10
2018-09-14T01:52:55.616Z,15.40
2018-09-14T01:55:23.805Z,12.67
2018-09-14T01:57:52.015Z,14.03
2018-09-14T02:00:20.198Z,14.50
2018-09-14T02:02:55.001Z,14.93
2018-09-14T02:05:23.225Z,14.70
2018-09-14T02:07:51.477Z,14.17
2018-09-14T02:10:23.836Z,11.83
2018-09-14T02:12:53.180Z,14.00
2018-09-14T02:15:21.532Z,12.03
2018-09-14T02:17:49.702Z,13.40
2018-09-14T02:20:19.058Z,12.53
2018-09-14T02:22:50.059Z,11.48
2018-09-14T02:25:18.240Z,11.30
2018-09-14T02:27:46.496Z,11.63
2018-09-14T02:30:14.724Z,11.95
2018-09-14T02:32:43.826Z,12.17
2018-09-14T02:35:12.082Z,12.20
2018-09-14T02:37:40.262Z,11.65
2018-09-14T02:40:08.498Z,12.93
2018-09-14T02:42:36.736Z,12.18
2018-09-14T02:45:05.437Z,13.10
2018-09-14T02:47:33.657Z,12.20
2018-09-14T02:50:01.846Z,11.77
2018-09-14T02:52:30.260Z,10.80
2018-09-14T02:54:58.480Z,11.30
2018-09-14T02:57:26.653Z,14.63
2018-09-14T02:59:54.860Z,11.47
2018-09-14T03:02:23.041Z,12.75
2018-09-14T03:04:51.252Z,10.30
2018-09-14T03:07:19.555Z,11.27
2018-09-14T03:09:47.803Z,10.80
2018-09-14T03:17:14.694Z,11.13
2018-09-14T03:19:42.970Z,13.07
2018-09-14T03:22:11.355Z,12.90
2018-09-14T03:24:39.517Z,13.93
2018-09-14T03:27:07.852Z,13.97
2018-09-14T03:34:34.097Z,16.23
2018-09-14T03:37:02.292Z,18.13
2018-09-14T03:39:30.497Z,18.03
2018-09-14T03:41:58.714Z,20.33
2018-09-14T03:44:26.991Z,16.40
2018-09-14T03:46:55.212Z,19.45
2018-09-14T03:49:23.464Z,20.13
2018-09-14T03:51:51.770Z,49.00
2018-09-14T03:54:20.059Z,17.13
2018-09-14T03:56:48.296Z,21.97
2018-09-14T03:59:16.560Z,18.53
2018-09-14T04:01:44.847Z,21.03
2018-09-14T04:04:13.118Z,22.42
2018-09-14T04:06:41.305Z,21.27
2018-09-14T04:09:10.744Z,20.87
2018-09-14T04:11:38.976Z,22.10
2018-09-14T04:14:07.612Z,23.20
2018-09-14T04:16:35.887Z,21.83
2018-09-14T04:19:05.244Z,19.27
2018-09-14T04:21:35.869Z,22.90
2018-09-14T04:24:04.418Z,21.53
2018-09-14T04:26:32.776Z,22.37
2018-09-14T04:29:01.497Z,24.23
2018-09-14T04:31:29.773Z,21.97
2018-09-14T04:33:58.060Z,25.37
2018-09-14T04:41:19.407Z,22.03
2018-09-14T04:43:47.645Z,22.63
2018-09-14T04:46:16.048Z,19.70
2018-09-14T04:48:44.445Z,20.37
2018-09-14T04:51:13.139Z,20.80
2018-09-14T04:53:41.382Z,21.97
2018-09-14T04:56:10.231Z,21.97
2018-09-14T04:58:38.726Z,23.60
2018-09-14T05:01:06.950Z,21.43
2018-09-14T05:03:35.417Z,20.97
2018-09-14T05:06:03.716Z,21.87
2018-09-14T05:08:31.970Z,18.73
2018-09-14T05:11:00.252Z,22.60
2018-09-14T05:13:28.486Z,19.30
2018-09-14T05:15:56.713Z,20.43
2018-09-14T05:18:24.894Z,19.37
2018-09-14T05:20:53.112Z,21.60
2018-09-14T05:23:21.422Z,20.20
2018-09-14T05:25:49.636Z,19.87
2018-09-14T05:28:17.879Z,19.37
2018-09-14T05:30:46.158Z,18.63
2018-09-14T05:38:08.030Z,20.87
2018-09-14T05:40:36.240Z,18.77
2018-09-14T05:43:04.422Z,18.90
2018-09-14T05:45:32.669Z,20.17
2018-09-14T05:48:00.822Z,23.33
2018-09-14T05:50:29.279Z,20.80
2018-09-14T05:52:57.470Z,21.17
2018-09-14T05:55:25.638Z,22.93
2018-09-14T05:57:53.839Z,20.63
2018-09-14T06:00:22.030Z,18.93
2018-09-14T06:02:50.243Z,22.40
2018-09-14T06:05:18.453Z,20.07
2018-09-14T06:07:47.668Z,22.50
2018-09-14T06:10:15.932Z,20.50
2018-09-14T06:12:44.147Z,20.00
2018-09-14T06:15:12.361Z,22.07
2018-09-14T06:17:40.635Z,19.87
2018-09-14T06:20:08.896Z,19.63
2018-09-14T06:22:37.334Z,20.20
2018-09-14T06:25:05.708Z,20.80
2018-09-14T06:27:34.463Z,21.10
2018-09-14T06:30:02.721Z,20.83
2018-09-14T06:32:30.940Z,23.53
2018-09-14T06:34:59.179Z,20.53
2018-09-14T06:37:27.471Z,21.37
2018-09-14T06:39:55.740Z,24.57
2018-09-14T06:42:23.922Z,22.03
2018-09-14T06:44:52.278Z,20.60
2018-09-14T06:47:21.417Z,20.83
2018-09-14T06:49:49.729Z,24.50
2018-09-14T06:52:17.946Z,22.47
2018-09-14T06:54:46.194Z,21.67
2018-09-14T06:57:14.707Z,21.93
2018-09-14T06:59:43.010Z,19.83
2018-09-14T07:02:11.239Z,23.80
2018-09-14T07:04:39.757Z,22.07
2018-09-14T07:07:07.987Z,23.30
2018-09-14T07:09:36.190Z,19.97
2018-09-14T07:12:04.392Z,21.57
2018-09-14T07:14:32.596Z,20.67
2018-09-14T07:17:00.739Z,20.47
2018-09-14T07:19:28.958Z,21.60
2018-09-14T07:21:57.337Z,24.37
2018-09-14T07:24:25.575Z,20.77
2018-09-14T07:26:54.640Z,21.20
2018-09-14T07:29:23.017Z,19.27
2018-09-14T07:31:51.491Z,21.17
2018-09-14T07:34:19.523Z,22.63
2018-09-14T07:36:47.763Z,22.35
2018-09-14T07:39:15.988Z,19.73
2018-09-14T07:41:44.209Z,17.13
2018-09-14T07:45:43.993Z,16.27
2018-09-14T07:48:12.211Z,18.00
2018-09-14T07:50:40.549Z,17.83
2018-09-14T07:53:08.794Z,19.70
2018-09-14T07:55:37.067Z,19.43
2018-09-14T07:58:05.275Z,23.30
2018-09-14T08:00:33.518Z,19.87
2018-09-14T08:03:01.716Z,21.87
2018-09-14T08:10:24.040Z,20.27
2018-09-14T08:12:52.318Z,20.20
2018-09-14T08:15:20.538Z,20.00
2018-09-14T08:17:48.745Z,19.60
2018-09-14T08:20:16.981Z,19.07
2018-09-14T08:22:46.513Z,16.10
2018-09-14T08:25:14.763Z,14.47
2018-09-14T08:27:43.129Z,17.95
2018-09-14T08:30:11.501Z,15.40
2018-09-14T08:32:39.743Z,14.90
2018-09-14T08:35:08.129Z,13.65
2018-09-14T08:37:36.330Z,12.45
2018-09-14T08:40:04.554Z,11.57
2018-09-14T08:42:32.742Z,14.90
2018-09-14T08:45:00.919Z,12.90
2018-09-14T08:47:29.155Z,13.18
2018-09-14T08:49:57.370Z,12.15
2018-09-14T08:52:25.557Z,12.90
2018-09-14T08:54:53.830Z,13.78
2018-09-14T08:57:22.302Z,14.85
2018-09-14T08:59:50.573Z,13.22
2018-09-14T09:02:19.564Z,12.30
2018-09-14T09:04:47.749Z,12.05
2018-09-14T09:07:16.099Z,12.98
2018-09-14T09:09:44.433Z,11.48
2018-09-14T09:12:12.637Z,11.07
2018-09-14T09:14:40.839Z,13.13
2018-09-14T09:17:09.043Z,14.83
2018-09-14T09:19:37.277Z,12.45
2018-09-14T09:22:05.528Z,11.48
2018-09-14T09:24:34.664Z,11.63
2018-09-14T09:27:02.863Z,10.45
2018-09-14T09:29:31.085Z,10.70
2018-09-14T09:31:59.301Z,11.00
2018-09-14T09:34:27.530Z,12.00
2018-09-14T09:36:55.994Z,9.70
2018-09-14T09:39:24.366Z,13.00
2018-09-14T09:46:45.136Z,9.60
2018-09-14T09:49:13.370Z,9.53
2018-09-14T09:51:41.519Z,12.28
2018-09-14T09:54:10.049Z,10.03
2018-09-14T09:56:38.266Z,11.00
2018-09-14T09:59:07.788Z,7.66
2018-09-14T10:01:41.391Z,12.55
2018-09-14T10:05:51.048Z,11.18
2018-09-14T10:08:19.257Z,8.98
2018-09-14T10:10:47.450Z,12.55
2018-09-14T10:13:15.667Z,9.48
2018-09-14T10:15:43.843Z,13.38
2018-09-14T10:18:12.673Z,10.58
2018-09-14T10:20:40.954Z,12.53
2018-09-14T10:23:09.177Z,12.58
2018-09-14T10:25:37.415Z,11.78
2018-09-14T10:28:05.727Z,12.58
2018-09-14T10:30:34.755Z,14.07
2018-09-14T10:33:03.002Z,9.33
2018-09-14T10:35:31.236Z,13.22
2018-09-14T10:37:59.488Z,8.45
2018-09-14T10:40:27.719Z,12.63
2018-09-14T10:42:56.004Z,10.43
2018-09-14T10:45:24.235Z,10.40
2018-09-14T10:47:52.546Z,10.48
2018-09-14T10:50:20.819Z,12.25
2018-09-14T10:52:49.048Z,10.43
2018-09-14T10:55:17.318Z,15.47
2018-09-14T10:57:45.442Z,11.12
2018-09-14T11:00:13.808Z,10.63
2018-09-14T11:02:42.025Z,12.50
2018-09-14T11:05:10.242Z,10.98
2018-09-14T11:07:38.498Z,10.43
2018-09-14T11:10:07.878Z,10.70
2018-09-14T11:12:36.120Z,11.93
2018-09-14T11:15:04.218Z,14.40
2018-09-14T11:17:33.157Z,10.47
2018-09-14T11:20:01.351Z,11.73
2018-09-14T11:22:29.608Z,7.87
2018-09-14T11:24:57.874Z,9.05
2018-09-14T11:27:26.068Z,9.03
2018-09-14T11:29:54.299Z,10.27
2018-09-14T11:32:22.582Z,11.17
2018-09-14T11:34:50.776Z,13.07
2018-09-14T11:37:19.083Z,16.17
2018-09-14T11:39:47.332Z,15.40
2018-09-14T11:42:15.494Z,12.53
2018-09-14T11:44:43.658Z,17.43
2018-09-14T11:47:11.858Z,13.13
2018-09-14T11:54:34.138Z,11.87
2018-09-14T11:57:02.375Z,13.03
2018-09-14T11:59:30.548Z,14.03
2018-09-14T12:01:58.884Z,10.60
2018-09-14T12:04:27.117Z,11.87
2018-09-14T12:06:55.340Z,11.90
2018-09-14T12:09:23.600Z,9.33
2018-09-14T12:11:51.819Z,12.80
2018-09-14T12:14:20.071Z,9.28
2018-09-14T12:16:48.294Z,8.00
2018-09-14T12:19:16.537Z,8.00
2018-09-14T12:21:44.744Z,10.15
2018-09-14T12:25:54.241Z,9.13
2018-09-14T12:28:22.446Z,10.10
2018-09-14T12:30:50.653Z,10.80
2018-09-14T12:33:18.847Z,9.93
2018-09-14T12:35:47.098Z,10.03
2018-09-14T12:38:15.301Z,9.83
2018-09-14T12:40:43.524Z,9.50
2018-09-14T12:43:11.741Z,9.57
2018-09-14T12:45:39.989Z,10.93
2018-09-14T12:48:08.217Z,9.57
2018-09-14T12:50:36.808Z,11.13
2018-09-14T12:53:04.982Z,12.10
2018-09-14T12:55:33.822Z,10.90
2018-09-14T12:58:01.995Z,9.20
2018-09-14T13:00:30.227Z,10.90
2018-09-14T13:02:58.474Z,9.50
2018-09-14T13:05:26.798Z,7.90
2018-09-14T13:07:54.991Z,8.47
2018-09-14T13:10:24.476Z,9.80
2018-09-14T13:12:53.602Z,9.43
2018-09-14T13:15:21.995Z,9.43
2018-09-14T13:17:50.531Z,9.00
2018-09-14T13:20:18.879Z,8.08
2018-09-14T13:22:47.314Z,8.60
2018-09-14T13:25:15.600Z,7.70
2018-09-14T13:27:44.134Z,12.13
2018-09-14T13:30:12.585Z,9.50
2018-09-14T13:32:43.411Z,10.23
2018-09-14T13:35:47.767Z,11.03
2018-09-14T13:38:15.965Z,8.87
2018-09-14T13:40:44.162Z,7.70
2018-09-14T13:43:12.396Z,9.40
2018-09-14T13:45:40.893Z,10.23
2018-09-14T13:48:09.097Z,11.48
2018-09-14T13:50:37.302Z,9.53
2018-09-14T13:53:05.526Z,8.55
2018-09-14T13:55:34.609Z,11.43
2018-09-14T13:58:02.947Z,8.98
2018-09-14T14:00:31.214Z,10.23
2018-09-14T14:02:59.490Z,9.87
2018-09-14T14:05:27.713Z,9.37
2018-09-14T14:07:55.965Z,12.50
2018-09-14T14:10:24.345Z,14.77
2018-09-14T14:12:52.507Z,9.20
2018-09-14T14:15:20.719Z,11.97
2018-09-14T14:17:49.066Z,9.60
2018-09-14T14:20:17.351Z,10.20
2018-09-14T14:22:45.611Z,8.20
2018-09-14T14:25:13.769Z,8.67
2018-09-14T14:27:41.994Z,9.37
2018-09-14T14:30:10.374Z,7.23
2018-09-14T14:32:39.858Z,8.20
2018-09-14T14:35:08.994Z,11.00
2018-09-14T14:37:37.226Z,8.90
2018-09-14T14:40:05.473Z,11.87
2018-09-14T14:42:33.647Z,10.23
2018-09-14T14:45:01.835Z,9.53
2018-09-14T14:47:30.889Z,9.23
2018-09-14T14:49:59.177Z,8.70
2018-09-14T14:52:27.412Z,8.80
2018-09-14T14:54:55.689Z,8.83
2018-09-14T14:57:25.532Z,11.70
2018-09-14T14:59:53.811Z,8.53
2018-09-14T15:02:22.061Z,8.50
2018-09-14T15:04:50.362Z,9.40
2018-09-14T15:07:18.584Z,7.87
2018-09-14T15:09:46.926Z,8.97
2018-09-14T15:12:15.185Z,7.23
2018-09-14T15:14:43.453Z,10.90
2018-09-14T15:17:11.639Z,9.53
2018-09-14T15:24:33.341Z,9.67
2018-09-14T15:27:01.524Z,11.50
2018-09-14T15:29:29.748Z,8.97
2018-09-14T15:31:57.981Z,9.60
2018-09-14T15:34:26.342Z,8.30
2018-09-14T15:36:55.608Z,9.33
2018-09-14T15:39:24.000Z,10.53
2018-09-14T15:41:52.170Z,9.20
2018-09-14T15:44:20.530Z,8.23
2018-09-14T15:46:48.822Z,8.40
2018-09-14T15:49:17.152Z,11.93
2018-09-14T15:51:45.380Z,8.13
2018-09-14T15:54:13.616Z,11.13
2018-09-14T15:56:41.839Z,7.57
2018-09-14T15:59:10.020Z,6.63
2018-09-14T16:01:38.252Z,6.63
2018-09-14T16:04:06.734Z,7.87
2018-09-14T16:06:35.029Z,6.10
2018-09-14T16:09:03.815Z,9.00
2018-09-14T16:11:33.607Z,10.73
2018-09-14T16:14:01.872Z,9.57
2018-09-14T16:16:33.251Z,14.17
2018-09-14T16:19:01.651Z,9.17
2018-09-14T16:21:31.004Z,10.00
2018-09-14T16:23:59.470Z,10.20
2018-09-14T16:26:28.092Z,5.50
2018-09-14T16:28:57.300Z,7.27
2018-09-14T16:31:27.026Z,8.73
2018-09-14T16:33:55.445Z,9.33
2018-09-14T16:36:24.037Z,5.20
2018-09-14T16:38:52.467Z,5.80
2018-09-14T16:41:21.345Z,10.07
2018-09-14T16:50:46.627Z,8.37
2018-09-14T16:53:15.049Z,9.43
2018-09-14T16:55:43.962Z,6.73
2018-09-14T16:58:12.664Z,5.45
2018-09-14T17:00:41.290Z,6.17
2018-09-14T17:03:11.256Z,6.47
2018-09-14T17:05:40.317Z,7.37
2018-09-14T17:13:03.107Z,6.70
2018-09-14T17:15:31.617Z,6.87
2018-09-14T17:18:00.709Z,7.83
2018-09-14T17:20:29.144Z,6.67
2018-09-14T17:22:57.695Z,8.53
2018-09-14T17:25:27.956Z,7.27
2018-09-14T17:27:58.321Z,8.73
2018-09-14T17:30:28.172Z,6.37
2018-09-14T17:32:56.966Z,5.50
2018-09-14T17:35:26.515Z,8.17
2018-09-14T17:37:58.876Z,4.30
2018-09-14T17:40:28.983Z,9.63
2018-09-14T17:42:58.068Z,6.93
2018-09-14T17:45:26.502Z,10.40
2018-09-14T17:47:54.934Z,5.85
2018-09-14T17:50:23.250Z,6.23
2018-09-14T17:52:51.951Z,4.05
2018-09-14T17:55:20.706Z,5.53
2018-09-14T17:57:52.077Z,6.90
2018-09-14T18:00:20.703Z,7.30
2018-09-14T18:02:49.045Z,5.80
2018-09-14T18:05:18.509Z,5.47
2018-09-14T18:07:47.162Z,5.73
2018-09-14T18:10:15.800Z,6.00
2018-09-14T18:12:44.128Z,7.43
2018-09-14T18:15:13.080Z,6.17
2018-09-14T18:17:42.649Z,7.97
2018-09-14T18:20:13.024Z,5.57
2018-09-14T18:22:41.785Z,8.47
2018-09-14T18:25:10.292Z,5.17
2018-09-14T18:27:39.536Z,9.10
2018-09-14T18:30:08.322Z,7.10
2018-09-14T18:32:37.207Z,7.90
2018-09-14T18:35:06.105Z,6.27
2018-09-14T18:37:35.693Z,8.23
2018-09-14T18:40:04.636Z,6.77
2018-09-14T18:42:34.477Z,10.40
2018-09-14T18:45:04.005Z,8.53
2018-09-14T18:47:32.780Z,7.87
2018-09-14T18:50:03.334Z,8.47
2018-09-14T18:52:34.784Z,6.37
2018-09-14T18:55:04.960Z,8.20
2018-09-14T18:57:36.733Z,10.97
2018-09-14T19:00:06.353Z,9.33
2018-09-14T19:02:36.088Z,8.80
2018-09-14T19:05:04.706Z,7.05
2018-09-14T19:07:34.548Z,9.23
2018-09-14T19:10:03.473Z,5.08
2018-09-14T19:12:33.106Z,7.17
2018-09-14T19:15:03.488Z,8.05
2018-09-14T19:17:31.958Z,11.13
2018-09-14T19:20:00.684Z,8.27
2018-09-14T19:22:29.301Z,9.33
2018-09-14T19:24:57.590Z,8.50
2018-09-14T19:27:26.092Z,8.70
2018-09-14T19:29:54.424Z,10.77
2018-09-14T19:32:22.871Z,8.03
2018-09-14T19:34:51.190Z,8.07
2018-09-14T19:37:20.066Z,14.50
2018-09-14T19:40:19.248Z,7.03
2018-09-14T19:42:47.733Z,6.47
2018-09-14T19:45:16.105Z,9.48
2018-09-14T19:47:44.523Z,11.83
2018-09-14T19:50:12.898Z,8.40
2018-09-14T19:52:41.234Z,12.45
2018-09-14T19:55:09.556Z,9.80
2018-09-14T19:57:37.947Z,8.43
2018-09-14T20:00:06.510Z,5.97
2018-09-14T20:02:34.822Z,9.53
2018-09-14T20:05:05.057Z,7.23
2018-09-14T20:07:35.794Z,6.93
2018-09-14T20:10:06.562Z,6.63
2018-09-14T20:12:34.901Z,8.43
2018-09-14T20:15:05.049Z,6.35
2018-09-14T20:17:33.536Z,7.03
2018-09-14T20:20:02.006Z,7.80
2018-09-14T20:22:30.971Z,8.93
2018-09-14T20:24:59.488Z,5.70
2018-09-14T20:27:29.099Z,7.47
2018-09-14T20:29:59.472Z,6.63
2018-09-14T20:32:27.847Z,11.80
2018-09-14T20:34:56.367Z,9.47
2018-09-14T20:37:24.723Z,10.40
2018-09-14T20:39:53.159Z,9.60
2018-09-14T20:42:21.481Z,11.17
2018-09-14T20:44:49.739Z,8.80
2018-09-14T20:52:11.371Z,6.70
2018-09-14T20:54:40.700Z,8.57
2018-09-14T20:57:08.932Z,11.67
2018-09-14T20:59:37.249Z,7.28
2018-09-14T21:02:05.518Z,6.67
2018-09-14T21:04:34.762Z,8.23
2018-09-14T21:07:03.259Z,7.42
2018-09-14T21:09:31.450Z,6.97
2018-09-14T21:11:59.664Z,10.93
2018-09-14T21:14:27.875Z,8.43
2018-09-14T21:16:56.643Z,4.47
2018-09-14T21:19:25.019Z,7.17
2018-09-14T21:21:53.325Z,5.28
2018-09-14T21:24:21.615Z,9.93
2018-09-14T21:26:51.803Z,12.33
2018-09-14T21:29:20.049Z,9.27
2018-09-14T21:31:48.222Z,10.63
2018-09-14T21:34:16.427Z,6.10
2018-09-14T21:36:44.859Z,7.20
2018-09-14T21:39:13.204Z,8.73
2018-09-14T21:41:41.398Z,9.47
2018-09-14T21:44:10.256Z,7.97
2018-09-14T21:46:38.728Z,6.80
2018-09-14T21:49:07.046Z,5.47
2018-09-14T21:51:35.420Z,9.23
2018-09-14T21:54:03.786Z,9.70
2018-09-14T21:56:32.024Z,12.63
2018-09-14T21:59:00.266Z,6.33
2018-09-14T22:01:29.635Z,10.73
2018-09-14T22:03:59.154Z,8.10
2018-09-14T22:06:27.407Z,9.80
2018-09-14T22:08:56.190Z,8.03
2018-09-14T22:11:24.393Z,10.30
2018-09-14T22:13:52.682Z,8.07
2018-09-14T22:16:21.114Z,9.27
2018-09-14T22:18:49.450Z,6.60
2018-09-14T22:21:18.282Z,10.33
2018-09-14T22:23:46.719Z,7.30
2018-09-14T22:26:14.945Z,12.03
2018-09-14T22:28:44.886Z,8.78
2018-09-14T22:31:13.072Z,8.20
2018-09-14T22:33:41.272Z,8.67
2018-09-14T22:36:09.501Z,8.28
2018-09-14T22:38:37.742Z,10.40
2018-09-14T22:41:05.922Z,8.57
2018-09-14T22:43:34.164Z,9.67
2018-09-14T22:46:02.372Z,7.27
2018-09-14T22:48:30.646Z,6.73
2018-09-14T22:50:58.989Z,10.53
2018-09-14T22:53:27.273Z,10.63
2018-09-14T22:55:55.670Z,9.37
2018-09-14T22:58:23.840Z,9.58
2018-09-14T23:00:57.609Z,10.70
2018-09-14T23:03:25.851Z,10.93
2018-09-14T23:05:54.077Z,9.47
2018-09-14T23:08:22.315Z,11.87
2018-09-14T23:10:50.571Z,11.60
2018-09-14T23:13:18.999Z,10.80
2018-09-14T23:15:54.905Z,12.77
2018-09-14T23:18:23.767Z,8.77
2018-09-14T23:20:52.004Z,13.77
2018-09-14T23:23:21.271Z,12.00
2018-09-14T23:25:50.323Z,9.93
2018-09-14T23:28:18.681Z,10.90
2018-09-14T23:30:46.914Z,12.50
2018-09-14T23:33:15.133Z,11.67
2018-09-14T23:35:44.216Z,11.80
2018-09-14T23:38:12.570Z,13.23
2018-09-14T23:40:40.804Z,14.80
2018-09-14T23:43:09.205Z,9.40
2018-09-14T23:45:37.405Z,9.70
2018-09-14T23:48:05.587Z,9.63
2018-09-14T23:50:33.746Z,9.03
2018-09-14T23:53:01.931Z,11.53
2018-09-14T23:55:30.233Z,13.63
2018-09-14T23:57:58.810Z,9.90
